Observation data for Denver City on 06/25/2019      Previous  Date  Next       Current Mesonet Observations  Soil Data  Daily Summary Page  Observations in Plain Language
KDVS 250500Z 13017G22KT 22/18 A2999 RMK A01 T02220179  RH  081%=      5-min Rain = 0
KDVS 250505Z 13014G19KT 22/18 A2999 RMK A01 T02210177  RH  080%=      5-min Rain = 0
KDVS 250510Z 14016G21KT 22/17 A2999 RMK A01 T02190169  RH  077%=      5-min Rain = 0
KDVS 250515Z 14018G24KT 22/15 A2999 RMK A01 T02190145  RH  065%=      5-min Rain = 0
KDVS 250520Z 14015KT 22/13 A2999 RMK A01 T02190134  RH  061%=      5-min Rain = 0
KDVS 250525Z 14014G21KT 22/13 A2999 RMK A01 T02180128  RH  059%=      5-min Rain = 0
KDVS 250530Z 14013KT 22/13 A2999 RMK A01 T02150125  RH  059%=      5-min Rain = 0
KDVS 250535Z 15012KT 21/12 A2999 RMK A01 T02130124  RH  059%=      5-min Rain = 0
KDVS 250540Z 15010KT 21/12 A2999 RMK A01 T02110124  RH  060%=      5-min Rain = 0
KDVS 250545Z 15010KT 21/12 A2999 RMK A01 T02090124  RH  060%=      5-min Rain = 0
KDVS 250550Z 15009KT 21/12 A2999 RMK A01 T02070124  RH  061%=      5-min Rain = 0
KDVS 250555Z 15008KT 21/12 A2999 RMK A01 T02050123  RH  062%=      5-min Rain = 0
KDVS 250600Z 15008KT 20/12 A2999 RMK A01 T02030123  RH  062%=      5-min Rain = 0
KDVS 250605Z 15007KT 20/12 A2999 RMK A01 T02000123  RH  063%=      5-min Rain = 0
KDVS 250610Z 16007KT 20/12 A2999 RMK A01 T01990122  RH  063%=      5-min Rain = 0
KDVS 250615Z 15007KT 20/12 A2999 RMK A01 T01970121  RH  064%=      5-min Rain = 0
KDVS 250620Z 15006KT 19/12 A2999 RMK A01 T01940120  RH  065%=      5-min Rain = 0
KDVS 250625Z 15006KT 19/12 A2998 RMK A01 T01900120  RH  067%=      5-min Rain = 0
KDVS 250630Z 16007KT 19/12 A2998 RMK A01 T01870120  RH  068%=      5-min Rain = 0
KDVS 250635Z 16007KT 19/12 A2998 RMK A01 T01870118  RH  067%=      5-min Rain = 0
KDVS 250640Z 15006KT 19/12 A2998 RMK A01 T01860115  RH  066%=      5-min Rain = 0
KDVS 250645Z 14006KT 18/12 A2998 RMK A01 T01830115  RH  067%=      5-min Rain = 0
KDVS 250650Z 14006KT 18/12 A2998 RMK A01 T01780117  RH  070%=      5-min Rain = 0
KDVS 250655Z 16006KT 17/12 A2998 RMK A01 T01740116  RH  071%=      5-min Rain = 0
KDVS 250700Z 15006KT 17/11 A2998 RMK A01 T01730113  RH  070%=      5-min Rain = 0
KDVS 250705Z 14006KT 17/11 A2998 RMK A01 T01710114  RH  071%=      5-min Rain = 0
KDVS 250710Z 15007KT 17/11 A2998 RMK A01 T01680114  RH  073%=      5-min Rain = 0
KDVS 250715Z 15007KT 17/11 A2998 RMK A01 T01670114  RH  074%=      5-min Rain = 0
KDVS 250720Z 16007KT 17/11 A2998 RMK A01 T01690113  RH  072%=      5-min Rain = 0
KDVS 250725Z 13006KT 17/11 A2999 RMK A01 T01690112  RH  072%=      5-min Rain = 0
KDVS 250730Z 12006KT 17/11 A2999 RMK A01 T01650112  RH  074%=      5-min Rain = 0
KDVS 250735Z 13006KT 16/11 A2999 RMK A01 T01630110  RH  074%=      5-min Rain = 0
KDVS 250740Z 12006KT 16/11 A2999 RMK A01 T01640109  RH  072%=      5-min Rain = 0
KDVS 250745Z 13008KT 17/11 A2999 RMK A01 T01650109  RH  072%=      5-min Rain = 0
KDVS 250750Z 15009KT 17/11 A2998 RMK A01 T01670111  RH  072%=      5-min Rain = 0
KDVS 250755Z 15006KT 17/11 A2999 RMK A01 T01710110  RH  069%=      5-min Rain = 0
KDVS 250800Z 13007KT 17/11 A2999 RMK A01 T01680110  RH  071%=      5-min Rain = 0
KDVS 250805Z 14007KT 17/11 A2999 RMK A01 T01680110  RH  071%=      5-min Rain = 0
KDVS 250810Z 13007KT 17/11 A2999 RMK A01 T01690110  RH  071%=      5-min Rain = 0
KDVS 250815Z 13006KT 17/11 A2999 RMK A01 T01670110  RH  071%=      5-min Rain = 0
KDVS 250820Z 14006KT 17/11 A2999 RMK A01 T01650110  RH  072%=      5-min Rain = 0
KDVS 250825Z 14007KT 16/11 A2999 RMK A01 T01610109  RH  074%=      5-min Rain = 0
KDVS 250830Z 15008KT 16/11 A2999 RMK A01 T01620110  RH  074%=      5-min Rain = 0
KDVS 250835Z 14007KT 17/11 A2999 RMK A01 T01660109  RH  071%=      5-min Rain = 0
KDVS 250840Z 15007KT 17/11 A2999 RMK A01 T01670108  RH  070%=      5-min Rain = 0
KDVS 250845Z 14008KT 17/11 A2999 RMK A01 T01690107  RH  069%=      5-min Rain = 0
KDVS 250850Z 13009KT 17/11 A2999 RMK A01 T01700107  RH  069%=      5-min Rain = 0
KDVS 250855Z 16010KT 17/11 A2999 RMK A01 T01690107  RH  069%=      5-min Rain = 0
KDVS 250900Z 15010KT 17/11 A2999 RMK A01 T01710106  RH  068%=      5-min Rain = 0
KDVS 250905Z 15008KT 17/11 A30 RMK A01 T01700106  RH  068%=      5-min Rain = 0
KDVS 250910Z 16006KT 17/11 A30 RMK A01 T01690106  RH  069%=      5-min Rain = 0
KDVS 250915Z 17006KT 17/11 A30 RMK A01 T01680106  RH  069%=      5-min Rain = 0
KDVS 250920Z 17006G11KT 17/11 A30 RMK A01 T01680106  RH  069%=      5-min Rain = 0
KDVS 250925Z 17010KT 18/11 A30 RMK A01 T01750107  RH  066%=      5-min Rain = 0
KDVS 250930Z 18010KT 18/11 A30 RMK A01 T01810107  RH  064%=      5-min Rain = 0
KDVS 250935Z 18009KT 18/11 A30 RMK A01 T01810107  RH  064%=      5-min Rain = 0
KDVS 250940Z 20009KT 18/11 A30 RMK A01 T01810108  RH  065%=      5-min Rain = 0
KDVS 250945Z 20008KT 18/11 A2999 RMK A01 T01800108  RH  065%=      5-min Rain = 0
KDVS 250950Z 20008KT 18/11 A2999 RMK A01 T01780108  RH  066%=      5-min Rain = 0
KDVS 250955Z 20007KT 18/11 A30 RMK A01 T01770109  RH  067%=      5-min Rain = 0
KDVS 251000Z 20008KT 18/11 A2999 RMK A01 T01750110  RH  068%=      5-min Rain = 0
KDVS 251005Z 20008KT 17/11 A2999 RMK A01 T01730110  RH  069%=      5-min Rain = 0
KDVS 251010Z 20008KT 17/11 A2999 RMK A01 T01720110  RH  069%=      5-min Rain = 0
KDVS 251015Z 20007KT 17/11 A2999 RMK A01 T01700110  RH  070%=      5-min Rain = 0
KDVS 251020Z 20007KT 17/11 A2999 RMK A01 T01690110  RH  071%=      5-min Rain = 0
KDVS 251025Z 21008KT 17/11 A2999 RMK A01 T01690111  RH  071%=      5-min Rain = 0
KDVS 251030Z 21008KT 17/11 A2999 RMK A01 T01710111  RH  070%=      5-min Rain = 0
KDVS 251035Z 21007KT 17/11 A2999 RMK A01 T01720111  RH  070%=      5-min Rain = 0
KDVS 251040Z 21008KT 17/11 A2999 RMK A01 T01740111  RH  069%=      5-min Rain = 0
KDVS 251045Z 21008KT 18/11 A2999 RMK A01 T01760111  RH  068%=      5-min Rain = 0
KDVS 251050Z 20008KT 18/11 A30 RMK A01 T01760111  RH  068%=      5-min Rain = 0
KDVS 251055Z 20008KT 18/11 A30 RMK A01 T01760111  RH  068%=      5-min Rain = 0
KDVS 251100Z 20007KT 18/11 A30 RMK A01 T01750111  RH  068%=      5-min Rain = 0
KDVS 251105Z 21007KT 18/11 A30 RMK A01 T01750111  RH  069%=      5-min Rain = 0
KDVS 251110Z 21007KT 17/11 A30 RMK A01 T01740112  RH  069%=      5-min Rain = 0
KDVS 251115Z 21007KT 17/11 A30 RMK A01 T01740112  RH  069%=      5-min Rain = 0
KDVS 251120Z 21006KT 18/11 A30 RMK A01 T01750112  RH  069%=      5-min Rain = 0
KDVS 251125Z 21006KT 17/11 A30 RMK A01 T01740111  RH  069%=      5-min Rain = 0
KDVS 251130Z 22007KT 17/11 A30 RMK A01 T01740111  RH  069%=      5-min Rain = 0
KDVS 251135Z 22008KT 17/11 A30 RMK A01 T01740112  RH  069%=      5-min Rain = 0
KDVS 251140Z 22006KT 17/11 A3001 RMK A01 T01730112  RH  070%=      5-min Rain = 0
KDVS 251145Z 21006KT 17/11 A3001 RMK A01 T01730113  RH  070%=      5-min Rain = 0
KDVS 251150Z 21006KT 17/11 A3001 RMK A01 T01720113  RH  071%=      5-min Rain = 0
KDVS 251155Z 21006KT 17/11 A3001 RMK A01 T01710113  RH  071%=      5-min Rain = 0
KDVS 251200Z 19005KT 17/11 A3002 RMK A01 T01700113  RH  072%=      5-min Rain = 0
KDVS 251205Z 16004KT 17/11 A3002 RMK A01 T01670112  RH  072%=      5-min Rain = 0
KDVS 251210Z 16004KT 16/11 A3002 RMK A01 T01610111  RH  075%=      5-min Rain = 0
KDVS 251215Z 16004KT 16/11 A3002 RMK A01 T01580111  RH  076%=      5-min Rain = 0
KDVS 251220Z 17004KT 16/11 A3002 RMK A01 T01580112  RH  077%=      5-min Rain = 0
KDVS 251225Z 18004KT 16/11 A3002 RMK A01 T01600114  RH  077%=      5-min Rain = 0
KDVS 251230Z 18004KT 16/12 A3003 RMK A01 T01630115  RH  076%=      5-min Rain = 0
KDVS 251235Z 17005KT 17/12 A3003 RMK A01 T01660115  RH  075%=      5-min Rain = 0
KDVS 251240Z 18005KT 17/12 A3003 RMK A01 T01690116  RH  073%=      5-min Rain = 0
KDVS 251245Z 17005KT 17/12 A3003 RMK A01 T01730117  RH  072%=      5-min Rain = 0
KDVS 251250Z 17005KT 18/12 A3003 RMK A01 T01780117  RH  070%=      5-min Rain = 0
KDVS 251255Z 19006KT 18/12 A3003 RMK A01 T01810117  RH  068%=      5-min Rain = 0
KDVS 251300Z 19007KT 18/12 A3003 RMK A01 T01840117  RH  068%=      5-min Rain = 0
KDVS 251305Z 18007KT 19/12 A3003 RMK A01 T01870118  RH  067%=      5-min Rain = 0
KDVS 251310Z 19007KT 19/12 A3003 RMK A01 T01890119  RH  066%=      5-min Rain = 0
KDVS 251315Z 18008KT 19/12 A3004 RMK A01 T01910120  RH  066%=      5-min Rain = 0
KDVS 251320Z 19007KT 19/12 A3004 RMK A01 T01940123  RH  066%=      5-min Rain = 0
KDVS 251325Z 19008KT 20/13 A3004 RMK A01 T01980126  RH  066%=      5-min Rain = 0
KDVS 251330Z 19010KT 20/13 A3004 RMK A01 T02000128  RH  066%=      5-min Rain = 0
KDVS 251335Z 19010KT 20/13 A3004 RMK A01 T02020132  RH  067%=      5-min Rain = 0
KDVS 251340Z 19011KT 21/14 A3004 RMK A01 T02050136  RH  067%=      5-min Rain = 0
KDVS 251345Z 19011KT 21/14 A3004 RMK A01 T02070138  RH  067%=      5-min Rain = 0
KDVS 251350Z 20013KT 21/14 A3004 RMK A01 T02090140  RH  068%=      5-min Rain = 0
KDVS 251355Z 20014G19KT 21/14 A3004 RMK A01 T02110142  RH  067%=      5-min Rain = 0
KDVS 251400Z 19012G17KT 21/14 A3004 RMK A01 T02130143  RH  067%=      5-min Rain = 0
KDVS 251405Z 20013KT 22/14 A3004 RMK A01 T02170143  RH  066%=      5-min Rain = 0
KDVS 251410Z 19014G20KT 22/15 A3004 RMK A01 T02210146  RH  065%=      5-min Rain = 0
KDVS 251415Z 19017KT 22/15 A3004 RMK A01 T02230147  RH  065%=      5-min Rain = 0
KDVS 251420Z 19016KT 23/15 A3005 RMK A01 T02250148  RH  064%=      5-min Rain = 0
KDVS 251425Z 19017KT 23/15 A3005 RMK A01 T02260148  RH  064%=      5-min Rain = 0
KDVS 251430Z 19014G19KT 23/15 A3005 RMK A01 T02270150  RH  064%=      5-min Rain = 0
KDVS 251435Z 18014KT 23/15 A3004 RMK A01 T02310150  RH  063%=      5-min Rain = 0
KDVS 251440Z 19014KT 23/15 A3004 RMK A01 T02340150  RH  062%=      5-min Rain = 0
KDVS 251445Z 19013KT 23/15 A3004 RMK A01 T02340149  RH  062%=      5-min Rain = 0
KDVS 251450Z 19013KT 24/15 A3004 RMK A01 T02350149  RH  061%=      5-min Rain = 0
KDVS 251455Z 19011KT 24/15 A3004 RMK A01 T02360150  RH  061%=      5-min Rain = 0
KDVS 251500Z 19012G17KT 24/15 A3004 RMK A01 T02380148  RH  059%=      5-min Rain = 0
KDVS 251505Z 20013KT 24/15 A3004 RMK A01 T02370147  RH  060%=      5-min Rain = 0
KDVS 251510Z 19012KT 24/15 A3004 RMK A01 T02390148  RH  059%=      5-min Rain = 0
KDVS 251515Z 19011KT 24/15 A3004 RMK A01 T02420148  RH  058%=      5-min Rain = 0
KDVS 251520Z 19010G15KT 25/15 A3004 RMK A01 T02450149  RH  058%=      5-min Rain = 0
KDVS 251525Z 19011KT 25/15 A3004 RMK A01 T02480148  RH  056%=      5-min Rain = 0
KDVS 251530Z 19011G16KT 25/15 A3004 RMK A01 T02490147  RH  056%=      5-min Rain = 0
KDVS 251535Z 20010KT 25/15 A3004 RMK A01 T02510148  RH  055%=      5-min Rain = 0
KDVS 251540Z 20010KT 26/15 A3004 RMK A01 T02560147  RH  053%=      5-min Rain = 0
KDVS 251545Z 19010KT 26/15 A3004 RMK A01 T02580146  RH  052%=      5-min Rain = 0
KDVS 251550Z 18010KT 26/15 A3004 RMK A01 T02600145  RH  051%=      5-min Rain = 0
KDVS 251555Z 19010KT 26/14 A3004 RMK A01 T02620144  RH  051%=      5-min Rain = 0
KDVS 251600Z 20010KT 26/14 A3004 RMK A01 T02630144  RH  050%=      5-min Rain = 0
KDVS 251605Z 18009KT 27/14 A3004 RMK A01 T02650144  RH  049%=      5-min Rain = 0
KDVS 251610Z 19008KT 27/14 A3003 RMK A01 T02690144  RH  048%=      5-min Rain = 0
KDVS 251615Z 19008KT 27/14 A3003 RMK A01 T02700142  RH  047%=      5-min Rain = 0
KDVS 251620Z 20008KT 27/14 A3003 RMK A01 T02740139  RH  045%=      5-min Rain = 0
KDVS 251625Z 19008KT 28/14 A3003 RMK A01 T02770142  RH  045%=      5-min Rain = 0
KDVS 251630Z 19008KT 28/14 A3003 RMK A01 T02810138  RH  043%=      5-min Rain = 0
KDVS 251635Z 19007KT 28/14 A3003 RMK A01 T02830135  RH  042%=      5-min Rain = 0
KDVS 251640Z 20008KT 28/13 A3003 RMK A01 T02840134  RH  041%=      5-min Rain = 0
KDVS 251645Z 19006KT 29/14 A3003 RMK A01 T02850136  RH  042%=      5-min Rain = 0
KDVS 251650Z 20007KT 29/13 A3003 RMK A01 T02920129  RH  038%=      5-min Rain = 0
KDVS 251655Z 20008KT 29/13 A3003 RMK A01 T02930129  RH  038%=      5-min Rain = 0
KDVS 251700Z 18007KT 30/13 A3003 RMK A01 T02950129  RH  038%=      5-min Rain = 0
KDVS 251705Z 20008KT 30/12 A3003 RMK A01 T02980120  RH  035%=      5-min Rain = 0
KDVS 251710Z 20007G12KT 30/12 A3003 RMK A01 T03020118  RH  033%=      5-min Rain = 0
KDVS 251715Z 18006G11KT 31/12 A3003 RMK A01 T03080121  RH  033%=      5-min Rain = 0
KDVS 251720Z 21007KT 31/12 A3003 RMK A01 T03070117  RH  032%=      5-min Rain = 0
KDVS 251725Z 18009KT 31/12 A3003 RMK A01 T03090117  RH  032%=      5-min Rain = 0
KDVS 251730Z 18008KT 31/11 A3003 RMK A01 T03130112  RH  030%=      5-min Rain = 0
KDVS 251735Z 19008KT 31/11 A3002 RMK A01 T03130112  RH  030%=      5-min Rain = 0
KDVS 251740Z 18009G14KT 32/11 A3002 RMK A01 T03150110  RH  029%=      5-min Rain = 0
KDVS 251745Z 19007G13KT 32/11 A3002 RMK A01 T03170108  RH  029%=      5-min Rain = 0
KDVS 251750Z 19008KT 32/11 A3002 RMK A01 T03200107  RH  028%=      5-min Rain = 0
KDVS 251755Z 20009KT 32/10 A3002 RMK A01 T03230100  RH  026%=      5-min Rain = 0
KDVS 251800Z 19008G13KT 32/10 A3002 RMK A01 T03240102  RH  026%=      5-min Rain = 0
KDVS 251805Z 18009KT 33/10 A3002 RMK A01 T03290099  RH  025%=      5-min Rain = 0
KDVS 251810Z 20009G15KT 33/09 A3002 RMK A01 T03290092  RH  024%=      5-min Rain = 0
KDVS 251815Z 19010KT 33/08 A3002 RMK A01 T03320080  RH  022%=      5-min Rain = 0
KDVS 251820Z 18009G14KT 33/07 A3002 RMK A01 T03340074  RH  021%=      5-min Rain = 0
KDVS 251825Z 20009G15KT 33/07 A3002 RMK A01 T03330069  RH  020%=      5-min Rain = 0
KDVS 251830Z 19009G14KT 34/07 A3002 RMK A01 T03380067  RH  019%=      5-min Rain = 0
KDVS 251835Z 17009G15KT 34/06 A3001 RMK A01 T03370060  RH  018%=      5-min Rain = 0
KDVS 251840Z 19011G17KT 34/03 A3001 RMK A01 T03420033  RH  015%=      5-min Rain = 0
KDVS 251845Z 19012G17KT 34/05 A3001 RMK A01 T03420046  RH  016%=      5-min Rain = 0
KDVS 251850Z 18010G17KT 34/04 A3001 RMK A01 T03430036  RH  015%=      5-min Rain = 0
KDVS 251855Z 18012G23KT 35/04 A3001 RMK A01 T03460043  RH  015%=      5-min Rain = 0
KDVS 251900Z 20011G17KT 35/03 A3001 RMK A01 T03460032  RH  014%=      5-min Rain = 0
KDVS 251905Z 19010G15KT 35/02 A30 RMK A01 T03470016  RH  013%=      5-min Rain = 0
KDVS 251910Z 20010G15KT 35/02 A30 RMK A01 T03470018  RH  013%=      5-min Rain = 0
KDVS 251915Z 19009KT 35/01 A30 RMK A01 T03500013  RH  012%=      5-min Rain = 0
KDVS 251920Z 19013G19KT 35/00 A30 RMK A01 T03540004  RH  011%=      5-min Rain = 0
KDVS 251925Z 18011KT 35/M01 A30 RMK A01 T03531008  RH  010%=      5-min Rain = 0
KDVS 251930Z 19005G13KT 35/M01 A30 RMK A01 T03521007  RH  010%=      5-min Rain = 0
KDVS 251935Z 17009G14KT 35/00 A2999 RMK A01 T03540001  RH  011%=      5-min Rain = 0
KDVS 251940Z 17010G17KT 36/M00 A2999 RMK A01 T03551001  RH  011%=      5-min Rain = 0
KDVS 251945Z 19008G16KT 35/M01 A2999 RMK A01 T03531005  RH  010%=      5-min Rain = 0
KDVS 251950Z 19007G16KT 35/M01 A2999 RMK A01 T03511007  RH  010%=      5-min Rain = 0
KDVS 251955Z 17011G19KT 35/M00 A2999 RMK A01 T03541002  RH  011%=      5-min Rain = 0
KDVS 252000Z 18004G10KT 35/M00 A2999 RMK A01 T03511003  RH  011%=      5-min Rain = 0
KDVS 252005Z 15006G12KT 36/00 A2998 RMK A01 T03550003  RH  011%=      5-min Rain = 0
KDVS 252010Z 19011G17KT 36/M00 A2998 RMK A01 T03581002  RH  010%=      5-min Rain = 0
KDVS 252015Z 21009G15KT 36/M01 A2998 RMK A01 T03571009  RH  010%=      5-min Rain = 0
KDVS 252020Z 19007G14KT 35/M01 A2998 RMK A01 T03541010  RH  010%=      5-min Rain = 0
KDVS 252025Z 15009G15KT 36/00 A2997 RMK A01 T036000-0  RH  010%=      5-min Rain = 0
KDVS 252030Z 17008KT 36/M00 A2997 RMK A01 T03611003  RH  010%=      5-min Rain = 0
KDVS 252035Z 17008G14KT 36/00 A2997 RMK A01 T036100-0  RH  010%=      5-min Rain = 0
KDVS 252040Z 20011KT 36/M01 A2997 RMK A01 T03601006  RH  010%=      5-min Rain = 0
KDVS 252045Z 19008KT 36/M00 A2997 RMK A01 T03611004  RH  010%=      5-min Rain = 0
KDVS 252050Z 21010KT 36/M01 A2997 RMK A01 T03601013  RH  009%=      5-min Rain = 0
KDVS 252055Z 18008G13KT 36/M01 A2997 RMK A01 T03631006  RH  010%=      5-min Rain = 0
KDVS 252100Z 14008G15KT 36/M00 A2996 RMK A01 T03621004  RH  010%=      5-min Rain = 0
KDVS 252105Z 13010G15KT 36/00 A2996 RMK A01 T03630001  RH  010%=      5-min Rain = 0
KDVS 252110Z 16010G19KT 36/M00 A2996 RMK A01 T03641001  RH  010%=      5-min Rain = 0
KDVS 252115Z 17011G18KT 36/M01 A2996 RMK A01 T03641013  RH  009%=      5-min Rain = 0
KDVS 252120Z 19013KT 36/M01 A2996 RMK A01 T03641010  RH  009%=      5-min Rain = 0
KDVS 252125Z 19007G14KT 36/M01 A2996 RMK A01 T03611011  RH  009%=      5-min Rain = 0
KDVS 252130Z 17008G13KT 36/M00 A2996 RMK A01 T03641003  RH  010%=      5-min Rain = 0
KDVS 252135Z 17014G19KT 36/M00 A2995 RMK A01 T03631004  RH  010%=      5-min Rain = 0
KDVS 252140Z 13012KT 36/M00 A2995 RMK A01 T03631002  RH  010%=      5-min Rain = 0
KDVS 252145Z 16011G17KT 36/M00 A2995 RMK A01 T03641002  RH  010%=      5-min Rain = 0
KDVS 252150Z 12010G17KT 36/M00 A2995 RMK A01 T03621004  RH  010%=      5-min Rain = 0
KDVS 252155Z 16011G16KT 36/00 A2995 RMK A01 T03620004  RH  011%=      5-min Rain = 0
KDVS 252200Z 12013G18KT 36/01 A2994 RMK A01 T03640005  RH  011%=      5-min Rain = 0
KDVS 252205Z 13015KT 36/00 A2994 RMK A01 T03630002  RH  010%=      5-min Rain = 0
KDVS 252210Z 15012G19KT 36/M00 A2994 RMK A01 T03611003  RH  010%=      5-min Rain = 0
KDVS 252215Z 14012G18KT 36/00 A2994 RMK A01 T03610002  RH  010%=      5-min Rain = 0
KDVS 252220Z 15015G20KT 37/00 A2994 RMK A01 T03650001  RH  010%=      5-min Rain = 0
KDVS 252225Z 15011G16KT 36/M00 A2994 RMK A01 T03641002  RH  010%=      5-min Rain = 0
KDVS 252230Z 14009G19KT 37/00 A2994 RMK A01 T03670002  RH  010%=      5-min Rain = 0
KDVS 252235Z 16013G21KT 37/00 A2993 RMK A01 T03670003  RH  010%=      5-min Rain = 0
KDVS 252240Z 15016G22KT 36/03 A2993 RMK A01 T03630027  RH  013%=      5-min Rain = 0
KDVS 252245Z 15014G21KT 36/02 A2994 RMK A01 T03570022  RH  012%=      5-min Rain = 0
KDVS 252250Z 16010G15KT 35/03 A2994 RMK A01 T03540025  RH  013%=      5-min Rain = 0
KDVS 252255Z 12015G20KT 35/03 A2993 RMK A01 T03480028  RH  014%=      5-min Rain = 0
KDVS 252300Z 14015G21KT 35/03 A2993 RMK A01 T03460032  RH  014%=      5-min Rain = 0
KDVS 252305Z 14014G20KT 34/03 A2993 RMK A01 T03390031  RH  015%=      5-min Rain = 0
KDVS 252310Z 13016G21KT 34/04 A2993 RMK A01 T03430039  RH  015%=      5-min Rain = 0
KDVS 252315Z 13018G26KT 35/05 A2993 RMK A01 T03490046  RH  015%=      5-min Rain = 0
KDVS 252320Z 13019KT 35/05 A2993 RMK A01 T03470047  RH  016%=      5-min Rain = 0
KDVS 252325Z 14017KT 35/05 A2993 RMK A01 T03470049  RH  016%=      5-min Rain = 0
KDVS 252330Z 14016G22KT 35/05 A2993 RMK A01 T03490051  RH  016%=      5-min Rain = 0
KDVS 252335Z 13015KT 35/05 A2993 RMK A01 T03470049  RH  016%=      5-min Rain = 0
KDVS 252340Z 13016G21KT 35/05 A2993 RMK A01 T03470048  RH  016%=      5-min Rain = 0
KDVS 252345Z 14016G22KT 35/05 A2993 RMK A01 T03460047  RH  016%=      5-min Rain = 0
KDVS 252350Z 15016KT 35/05 A2993 RMK A01 T03450046  RH  016%=      5-min Rain = 0
KDVS 252355Z 14017G24KT 34/05 A2993 RMK A01 T03430046  RH  016%=      5-min Rain = 0
KDVS 260000Z 14017KT 34/05 A2993 RMK A01 T03420047  RH  016%=      5-min Rain = 0
KDVS 260005Z 13019G26KT 34/04 A2993 RMK A01 T03410043  RH  016%=      5-min Rain = 0
KDVS 260010Z 13018KT 34/05 A2993 RMK A01 T03380045  RH  016%=      5-min Rain = 0
KDVS 260015Z 13015G20KT 34/05 A2993 RMK A01 T03380047  RH  017%=      5-min Rain = 0
KDVS 260020Z 14016G22KT 34/05 A2992 RMK A01 T03360049  RH  017%=      5-min Rain = 0
KDVS 260025Z 14015G20KT 33/05 A2992 RMK A01 T03320051  RH  018%=      5-min Rain = 0
KDVS 260030Z 14019G25KT 33/05 A2992 RMK A01 T03320051  RH  018%=      5-min Rain = 0
KDVS 260035Z 15016KT 33/05 A2993 RMK A01 T03300052  RH  018%=      5-min Rain = 0
KDVS 260040Z 14017G22KT 33/05 A2993 RMK A01 T03250053  RH  019%=      5-min Rain = 0
KDVS 260045Z 15016G22KT 32/06 A2993 RMK A01 T03220055  RH  019%=      5-min Rain = 0
KDVS 260050Z 15016KT 32/06 A2993 RMK A01 T03230057  RH  019%=      5-min Rain = 0
KDVS 260055Z 14016G23KT 33/06 A2993 RMK A01 T03260056  RH  019%=      5-min Rain = 0
KDVS 260100Z 15015G20KT 33/06 A2994 RMK A01 T03250060  RH  020%=      5-min Rain = 0
KDVS 260105Z 15016KT 32/06 A2994 RMK A01 T03230064  RH  020%=      5-min Rain = 0
KDVS 260110Z 15016G21KT 32/07 A2994 RMK A01 T03200070  RH  021%=      5-min Rain = 0
KDVS 260115Z 15015G20KT 32/07 A2994 RMK A01 T03180073  RH  022%=      5-min Rain = 0
KDVS 260120Z 15015G22KT 32/08 A2994 RMK A01 T03150077  RH  023%=      5-min Rain = 0
KDVS 260125Z 14016KT 31/08 A2994 RMK A01 T03130080  RH  024%=      5-min Rain = 0
KDVS 260130Z 14015G21KT 31/08 A2994 RMK A01 T03110080  RH  024%=      5-min Rain = 0
KDVS 260135Z 15014G19KT 31/08 A2994 RMK A01 T03090081  RH  025%=      5-min Rain = 0
KDVS 260140Z 15014G21KT 31/08 A2994 RMK A01 T03060080  RH  025%=      5-min Rain = 0
KDVS 260145Z 15015G22KT 30/08 A2995 RMK A01 T03040081  RH  026%=      5-min Rain = 0
KDVS 260150Z 15018G24KT 30/08 A2995 RMK A01 T03020081  RH  026%=      5-min Rain = 0
KDVS 260155Z 15015G23KT 30/08 A2995 RMK A01 T03000081  RH  026%=      5-min Rain = 0
KDVS 260200Z 15018G23KT 30/08 A2996 RMK A01 T02990082  RH  027%=      5-min Rain = 0
KDVS 260205Z 15015G22KT 30/08 A2996 RMK A01 T02980082  RH  027%=      5-min Rain = 0
KDVS 260210Z 16017KT 30/08 A2997 RMK A01 T02960082  RH  027%=      5-min Rain = 0
KDVS 260215Z 18022G29KT 29/09 A2998 RMK A01 T02910093  RH  030%=      5-min Rain = 0
KDVS 260220Z 19023G32KT 27/11 A2999 RMK A01 T02710107  RH  037%=      5-min Rain = 0
KDVS 260225Z 18025G34KT 26/12 A2999 RMK A01 T02590115  RH  042%=      5-min Rain = 0
KDVS 260230Z 17023G29KT 25/11 A2999 RMK A01 T02540113  RH  043%=      5-min Rain = 0
KDVS 260235Z 17020G26KT 25/11 A2999 RMK A01 T02490112  RH  044%=      5-min Rain = 0
KDVS 260240Z 17021G27KT 25/11 A2999 RMK A01 T02500113  RH  044%=      5-min Rain = 0
KDVS 260245Z 17019G25KT 26/11 A30 RMK A01 T02580110  RH  041%=      5-min Rain = 0
KDVS 260250Z 16020G26KT 26/11 A30 RMK A01 T02630107  RH  039%=      5-min Rain = 0
KDVS 260255Z 16020G25KT 26/11 A3001 RMK A01 T02640109  RH  039%=      5-min Rain = 0
KDVS 260300Z 15017G22KT 26/12 A3001 RMK A01 T02630117  RH  042%=      5-min Rain = 0
KDVS 260305Z 15015KT 26/12 A3001 RMK A01 T02600122  RH  044%=      5-min Rain = 0
KDVS 260310Z 15016G21KT 26/12 A3002 RMK A01 T02600124  RH  045%=      5-min Rain = 0
KDVS 260315Z 15016G22KT 26/12 A3002 RMK A01 T02620123  RH  044%=      5-min Rain = 0
KDVS 260320Z 15015KT 26/12 A3002 RMK A01 T02630124  RH  044%=      5-min Rain = 0
KDVS 260325Z 15015KT 26/13 A3002 RMK A01 T02630126  RH  044%=      5-min Rain = 0
KDVS 260330Z 15016G21KT 26/13 A3003 RMK A01 T02630128  RH  045%=      5-min Rain = 0
KDVS 260335Z 14016G21KT 26/13 A3003 RMK A01 T02630129  RH  045%=      5-min Rain = 0
KDVS 260340Z 14015KT 26/13 A3003 RMK A01 T02620130  RH  046%=      5-min Rain = 0
KDVS 260345Z 14016KT 26/13 A3004 RMK A01 T02600132  RH  047%=      5-min Rain = 0
KDVS 260350Z 14014KT 26/13 A3004 RMK A01 T02590131  RH  047%=      5-min Rain = 0
KDVS 260355Z 14014KT 26/13 A3004 RMK A01 T02580129  RH  046%=      5-min Rain = 0
KDVS 260400Z 14015KT 26/13 A3004 RMK A01 T02580125  RH  045%=      5-min Rain = 0
KDVS 260405Z 14016G21KT 26/12 A3004 RMK A01 T02590120  RH  044%=      5-min Rain = 0
KDVS 260410Z 13015KT 26/12 A3004 RMK A01 T02580123  RH  045%=      5-min Rain = 0
KDVS 260415Z 13014G19KT 26/13 A3004 RMK A01 T02560129  RH  047%=      5-min Rain = 0
KDVS 260420Z 13015G20KT 25/13 A3004 RMK A01 T02530130  RH  048%=      5-min Rain = 0
KDVS 260425Z 13013G18KT 25/13 A3005 RMK A01 T02510129  RH  049%=      5-min Rain = 0
KDVS 260430Z 13015KT 25/13 A3005 RMK A01 T02510127  RH  048%=      5-min Rain = 0
KDVS 260435Z 13015G22KT 25/12 A3005 RMK A01 T02510124  RH  047%=      5-min Rain = 0
KDVS 260440Z 14016KT 25/12 A3005 RMK A01 T02520123  RH  046%=      5-min Rain = 0
KDVS 260445Z 14014G19KT 25/12 A3005 RMK A01 T02510122  RH  046%=      5-min Rain = 0
KDVS 260450Z 13013KT 25/12 A3005 RMK A01 T02490122  RH  047%=      5-min Rain = 0
KDVS 260455Z 13013KT 25/12 A3005 RMK A01 T02470123  RH  047%=      5-min Rain = 0

Page generated in 0.0091 seconds.